sensor_id;sensor_type;location;lat;lon;timestamp;P1;durP1;ratioP1;P2;durP2;ratioP2
2119;SDS011;1066;52.540;13.420;2023-05-21T00:01:13;13.93;;;12.43;;
2119;SDS011;1066;52.540;13.420;2023-05-21T00:04:35;14.03;;;12.80;;
2119;SDS011;1066;52.540;13.420;2023-05-21T00:07:53;14.67;;;13.17;;
2119;SDS011;1066;52.540;13.420;2023-05-21T00:11:11;13.30;;;12.20;;
2119;SDS011;1066;52.540;13.420;2023-05-21T00:14:30;13.97;;;12.77;;
2119;SDS011;1066;52.540;13.420;2023-05-21T00:17:47;14.60;;;13.30;;
2119;SDS011;1066;52.540;13.420;2023-05-21T00:21:05;15.93;;;13.13;;
2119;SDS011;1066;52.540;13.420;2023-05-21T00:24:26;14.23;;;12.93;;
2119;SDS011;1066;52.540;13.420;2023-05-21T00:27:47;13.90;;;12.60;;
2119;SDS011;1066;52.540;13.420;2023-05-21T00:31:05;13.23;;;11.93;;
2119;SDS011;1066;52.540;13.420;2023-05-21T00:34:23;14.27;;;13.07;;
2119;SDS011;1066;52.540;13.420;2023-05-21T00:37:41;15.17;;;13.60;;
2119;SDS011;1066;52.540;13.420;2023-05-21T00:41:00;13.80;;;12.50;;
2119;SDS011;1066;52.540;13.420;2023-05-21T00:44:20;13.57;;;12.23;;
2119;SDS011;1066;52.540;13.420;2023-05-21T00:47:44;15.90;;;13.40;;
2119;SDS011;1066;52.540;13.420;2023-05-21T00:51:03;13.67;;;12.50;;
2119;SDS011;1066;52.540;13.420;2023-05-21T00:54:21;14.13;;;12.77;;
2119;SDS011;1066;52.540;13.420;2023-05-21T00:57:40;12.70;;;11.53;;
2119;SDS011;1066;52.540;13.420;2023-05-21T01:00:58;12.70;;;11.53;;
2119;SDS011;1066;52.540;13.420;2023-05-21T01:04:21;13.90;;;12.60;;
2119;SDS011;1066;52.540;13.420;2023-05-21T01:07:39;14.30;;;13.10;;
2119;SDS011;1066;52.540;13.420;2023-05-21T01:10:59;14.03;;;12.80;;
2119;SDS011;1066;52.540;13.420;2023-05-21T01:14:17;14.53;;;13.30;;
2119;SDS011;1066;52.540;13.420;2023-05-21T01:17:36;13.10;;;11.90;;
2119;SDS011;1066;52.540;13.420;2023-05-21T01:20:59;13.17;;;12.07;;
2119;SDS011;1066;52.540;13.420;2023-05-21T01:24:20;14.30;;;12.97;;
2119;SDS011;1066;52.540;13.420;2023-05-21T01:27:38;13.23;;;12.03;;
2119;SDS011;1066;52.540;13.420;2023-05-21T01:30:58;13.47;;;12.27;;
2119;SDS011;1066;52.540;13.420;2023-05-21T01:41:33;14.80;;;13.50;;
2119;SDS011;1066;52.540;13.420;2023-05-21T01:44:52;15.77;;;14.33;;
2119;SDS011;1066;52.540;13.420;2023-05-21T01:48:12;14.10;;;12.80;;
2119;SDS011;1066;52.540;13.420;2023-05-21T01:51:30;15.53;;;14.13;;
2119;SDS011;1066;52.540;13.420;2023-05-21T01:54:48;15.70;;;14.30;;
2119;SDS011;1066;52.540;13.420;2023-05-21T01:58:06;16.90;;;15.40;;
2119;SDS011;1066;52.540;13.420;2023-05-21T02:01:24;15.40;;;14.07;;
2119;SDS011;1066;52.540;13.420;2023-05-21T02:04:42;16.47;;;14.97;;
2119;SDS011;1066;52.540;13.420;2023-05-21T02:08:00;16.63;;;15.03;;
2119;SDS011;1066;52.540;13.420;2023-05-21T02:11:19;15.80;;;14.27;;
2119;SDS011;1066;52.540;13.420;2023-05-21T02:14:37;16.90;;;15.40;;
2119;SDS011;1066;52.540;13.420;2023-05-21T02:17:58;17.63;;;15.90;;
2119;SDS011;1066;52.540;13.420;2023-05-21T02:21:17;17.17;;;15.47;;
2119;SDS011;1066;52.540;13.420;2023-05-21T02:24:35;17.27;;;15.57;;
2119;SDS011;1066;52.540;13.420;2023-05-21T02:27:53;16.30;;;14.70;;
2119;SDS011;1066;52.540;13.420;2023-05-21T02:31:12;16.10;;;14.70;;
2119;SDS011;1066;52.540;13.420;2023-05-21T02:34:30;16.73;;;15.33;;
2119;SDS011;1066;52.540;13.420;2023-05-21T02:37:48;17.07;;;15.40;;
2119;SDS011;1066;52.540;13.420;2023-05-21T02:41:10;16.50;;;15.10;;
2119;SDS011;1066;52.540;13.420;2023-05-21T02:44:28;18.37;;;16.60;;
2119;SDS011;1066;52.540;13.420;2023-05-21T02:47:45;17.97;;;16.27;;
2119;SDS011;1066;52.540;13.420;2023-05-21T02:51:03;17.83;;;16.23;;
2119;SDS011;1066;52.540;13.420;2023-05-21T02:54:21;17.83;;;16.33;;
2119;SDS011;1066;52.540;13.420;2023-05-21T02:57:39;19.07;;;17.00;;
2119;SDS011;1066;52.540;13.420;2023-05-21T03:00:57;17.10;;;15.63;;
2119;SDS011;1066;52.540;13.420;2023-05-21T03:04:15;19.97;;;18.10;;
2119;SDS011;1066;52.540;13.420;2023-05-21T03:07:33;19.30;;;17.50;;
2119;SDS011;1066;52.540;13.420;2023-05-21T03:10:51;18.47;;;16.63;;
2119;SDS011;1066;52.540;13.420;2023-05-21T03:14:09;18.03;;;16.33;;
2119;SDS011;1066;52.540;13.420;2023-05-21T03:17:26;18.83;;;17.03;;
2119;SDS011;1066;52.540;13.420;2023-05-21T03:20:44;19.40;;;17.50;;
2119;SDS011;1066;52.540;13.420;2023-05-21T03:24:03;20.80;;;18.93;;
2119;SDS011;1066;52.540;13.420;2023-05-21T03:27:22;19.30;;;17.67;;
2119;SDS011;1066;52.540;13.420;2023-05-21T03:30:41;20.00;;;18.10;;
2119;SDS011;1066;52.540;13.420;2023-05-21T03:33:59;19.20;;;17.50;;
2119;SDS011;1066;52.540;13.420;2023-05-21T03:37:17;19.70;;;17.80;;
2119;SDS011;1066;52.540;13.420;2023-05-21T03:40:35;20.73;;;18.93;;
2119;SDS011;1066;52.540;13.420;2023-05-21T03:43:53;21.40;;;19.30;;
2119;SDS011;1066;52.540;13.420;2023-05-21T03:47:11;20.67;;;18.80;;
2119;SDS011;1066;52.540;13.420;2023-05-21T03:50:29;20.53;;;18.53;;
2119;SDS011;1066;52.540;13.420;2023-05-21T03:53:46;19.33;;;17.57;;
2119;SDS011;1066;52.540;13.420;2023-05-21T03:57:04;19.77;;;17.93;;
2119;SDS011;1066;52.540;13.420;2023-05-21T04:00:22;19.13;;;17.33;;
2119;SDS011;1066;52.540;13.420;2023-05-21T04:03:41;20.47;;;18.60;;
2119;SDS011;1066;52.540;13.420;2023-05-21T04:06:59;20.60;;;18.70;;
2119;SDS011;1066;52.540;13.420;2023-05-21T04:10:18;19.70;;;17.93;;
2119;SDS011;1066;52.540;13.420;2023-05-21T04:13:36;19.43;;;17.63;;
2119;SDS011;1066;52.540;13.420;2023-05-21T04:16:54;19.87;;;17.97;;
2119;SDS011;1066;52.540;13.420;2023-05-21T04:20:14;20.00;;;18.30;;
2119;SDS011;1066;52.540;13.420;2023-05-21T04:23:32;19.57;;;17.97;;
2119;SDS011;1066;52.540;13.420;2023-05-21T04:26:50;19.17;;;17.57;;
2119;SDS011;1066;52.540;13.420;2023-05-21T04:30:11;19.33;;;17.60;;
2119;SDS011;1066;52.540;13.420;2023-05-21T04:33:29;21.07;;;19.07;;
2119;SDS011;1066;52.540;13.420;2023-05-21T04:36:47;20.33;;;18.53;;
2119;SDS011;1066;52.540;13.420;2023-05-21T04:40:07;21.47;;;19.40;;
2119;SDS011;1066;52.540;13.420;2023-05-21T04:43:27;20.80;;;18.90;;
2119;SDS011;1066;52.540;13.420;2023-05-21T04:46:46;19.07;;;17.47;;
2119;SDS011;1066;52.540;13.420;2023-05-21T04:50:04;19.80;;;18.00;;
2119;SDS011;1066;52.540;13.420;2023-05-21T04:53:22;21.20;;;19.47;;
2119;SDS011;1066;52.540;13.420;2023-05-21T04:56:40;20.53;;;18.73;;
2119;SDS011;1066;52.540;13.420;2023-05-21T04:59:58;21.20;;;19.23;;
2119;SDS011;1066;52.540;13.420;2023-05-21T05:03:17;20.33;;;18.50;;
2119;SDS011;1066;52.540;13.420;2023-05-21T05:06:35;19.90;;;18.10;;
2119;SDS011;1066;52.540;13.420;2023-05-21T05:09:53;19.03;;;17.33;;
2119;SDS011;1066;52.540;13.420;2023-05-21T05:13:11;19.87;;;18.10;;
2119;SDS011;1066;52.540;13.420;2023-05-21T05:16:29;22.03;;;20.07;;
2119;SDS011;1066;52.540;13.420;2023-05-21T05:19:46;25.50;;;23.40;;
2119;SDS011;1066;52.540;13.420;2023-05-21T05:23:04;21.10;;;19.10;;
2119;SDS011;1066;52.540;13.420;2023-05-21T05:26:22;23.90;;;21.70;;
2119;SDS011;1066;52.540;13.420;2023-05-21T05:29:41;22.20;;;19.80;;
2119;SDS011;1066;52.540;13.420;2023-05-21T05:33:00;21.00;;;19.17;;
2119;SDS011;1066;52.540;13.420;2023-05-21T05:36:18;20.50;;;18.60;;
2119;SDS011;1066;52.540;13.420;2023-05-21T05:39:35;21.37;;;19.57;;
2119;SDS011;1066;52.540;13.420;2023-05-21T05:42:53;20.87;;;18.87;;
2119;SDS011;1066;52.540;13.420;2023-05-21T05:46:11;21.33;;;19.63;;
2119;SDS011;1066;52.540;13.420;2023-05-21T05:49:33;21.17;;;19.37;;
2119;SDS011;1066;52.540;13.420;2023-05-21T05:52:51;21.77;;;19.87;;
2119;SDS011;1066;52.540;13.420;2023-05-21T05:56:08;21.13;;;19.23;;
2119;SDS011;1066;52.540;13.420;2023-05-21T05:59:26;21.50;;;19.40;;
2119;SDS011;1066;52.540;13.420;2023-05-21T06:02:47;19.80;;;17.93;;
2119;SDS011;1066;52.540;13.420;2023-05-21T06:06:05;22.10;;;19.97;;
2119;SDS011;1066;52.540;13.420;2023-05-21T06:09:24;20.10;;;18.33;;
2119;SDS011;1066;52.540;13.420;2023-05-21T06:12:44;21.90;;;20.00;;
2119;SDS011;1066;52.540;13.420;2023-05-21T06:16:02;20.67;;;18.90;;
2119;SDS011;1066;52.540;13.420;2023-05-21T06:19:20;20.47;;;18.57;;
2119;SDS011;1066;52.540;13.420;2023-05-21T06:22:38;20.60;;;18.90;;
2119;SDS011;1066;52.540;13.420;2023-05-21T06:25:56;20.03;;;18.23;;
2119;SDS011;1066;52.540;13.420;2023-05-21T06:29:14;19.77;;;17.70;;
2119;SDS011;1066;52.540;13.420;2023-05-21T06:32:32;20.67;;;18.90;;
2119;SDS011;1066;52.540;13.420;2023-05-21T06:35:51;21.50;;;19.60;;
2119;SDS011;1066;52.540;13.420;2023-05-21T06:39:09;18.90;;;17.40;;
2119;SDS011;1066;52.540;13.420;2023-05-21T06:42:27;22.77;;;20.87;;
2119;SDS011;1066;52.540;13.420;2023-05-21T06:45:45;20.47;;;18.70;;
2119;SDS011;1066;52.540;13.420;2023-05-21T06:49:03;20.63;;;18.80;;
2119;SDS011;1066;52.540;13.420;2023-05-21T06:52:24;19.17;;;17.37;;
2119;SDS011;1066;52.540;13.420;2023-05-21T06:55:42;20.40;;;18.50;;
2119;SDS011;1066;52.540;13.420;2023-05-21T06:59:00;20.53;;;18.80;;
2119;SDS011;1066;52.540;13.420;2023-05-21T07:02:18;19.60;;;17.80;;
2119;SDS011;1066;52.540;13.420;2023-05-21T07:05:36;19.37;;;17.57;;
2119;SDS011;1066;52.540;13.420;2023-05-21T07:08:54;21.37;;;19.40;;
2119;SDS011;1066;52.540;13.420;2023-05-21T07:12:11;22.07;;;20.07;;
2119;SDS011;1066;52.540;13.420;2023-05-21T07:15:29;20.13;;;18.10;;
2119;SDS011;1066;52.540;13.420;2023-05-21T07:18:47;19.93;;;18.13;;
2119;SDS011;1066;52.540;13.420;2023-05-21T07:22:05;21.80;;;19.97;;
2119;SDS011;1066;52.540;13.420;2023-05-21T07:25:23;33.87;;;30.27;;
2119;SDS011;1066;52.540;13.420;2023-05-21T07:28:41;20.90;;;18.97;;
2119;SDS011;1066;52.540;13.420;2023-05-21T07:31:59;20.27;;;18.47;;
2119;SDS011;1066;52.540;13.420;2023-05-21T07:35:17;18.30;;;16.50;;
2119;SDS011;1066;52.540;13.420;2023-05-21T07:38:35;32.47;;;29.10;;
2119;SDS011;1066;52.540;13.420;2023-05-21T07:41:53;29.83;;;26.83;;
2119;SDS011;1066;52.540;13.420;2023-05-21T07:45:11;34.83;;;31.43;;
2119;SDS011;1066;52.540;13.420;2023-05-21T07:48:29;22.50;;;20.27;;
2119;SDS011;1066;52.540;13.420;2023-05-21T07:51:47;32.37;;;27.80;;
2119;SDS011;1066;52.540;13.420;2023-05-21T07:55:05;34.07;;;30.67;;
2119;SDS011;1066;52.540;13.420;2023-05-21T07:58:23;23.00;;;20.83;;
2119;SDS011;1066;52.540;13.420;2023-05-21T08:01:41;20.47;;;18.70;;
2119;SDS011;1066;52.540;13.420;2023-05-21T08:04:59;20.97;;;18.87;;
2119;SDS011;1066;52.540;13.420;2023-05-21T08:08:17;27.63;;;25.13;;
2119;SDS011;1066;52.540;13.420;2023-05-21T08:11:36;22.87;;;20.60;;
2119;SDS011;1066;52.540;13.420;2023-05-21T08:14:54;20.37;;;18.40;;
2119;SDS011;1066;52.540;13.420;2023-05-21T08:18:16;31.07;;;28.10;;
2119;SDS011;1066;52.540;13.420;2023-05-21T08:21:34;25.77;;;23.40;;
2119;SDS011;1066;52.540;13.420;2023-05-21T08:24:52;23.77;;;21.63;;
2119;SDS011;1066;52.540;13.420;2023-05-21T08:28:10;28.27;;;25.47;;
2119;SDS011;1066;52.540;13.420;2023-05-21T08:31:28;18.93;;;17.07;;
2119;SDS011;1066;52.540;13.420;2023-05-21T08:34:45;18.23;;;16.53;;
2119;SDS011;1066;52.540;13.420;2023-05-21T08:38:03;16.93;;;15.53;;
2119;SDS011;1066;52.540;13.420;2023-05-21T08:41:21;19.40;;;17.47;;
2119;SDS011;1066;52.540;13.420;2023-05-21T08:44:42;15.53;;;14.23;;
2119;SDS011;1066;52.540;13.420;2023-05-21T08:48:06;20.60;;;18.60;;
2119;SDS011;1066;52.540;13.420;2023-05-21T08:51:27;21.57;;;19.77;;
2119;SDS011;1066;52.540;13.420;2023-05-21T08:54:45;23.87;;;21.80;;
2119;SDS011;1066;52.540;13.420;2023-05-21T08:58:03;17.20;;;15.70;;
2119;SDS011;1066;52.540;13.420;2023-05-21T09:01:22;16.87;;;15.37;;
2119;SDS011;1066;52.540;13.420;2023-05-21T09:04:42;20.47;;;18.40;;
2119;SDS011;1066;52.540;13.420;2023-05-21T09:11:47;13.87;;;12.67;;
2119;SDS011;1066;52.540;13.420;2023-05-21T09:15:07;29.43;;;26.27;;
2119;SDS011;1066;52.540;13.420;2023-05-21T09:18:25;19.33;;;17.53;;
2119;SDS011;1066;52.540;13.420;2023-05-21T09:21:46;16.20;;;14.50;;
2119;SDS011;1066;52.540;13.420;2023-05-21T09:25:05;15.37;;;14.10;;
2119;SDS011;1066;52.540;13.420;2023-05-21T09:28:23;16.13;;;14.63;;
2119;SDS011;1066;52.540;13.420;2023-05-21T09:31:42;13.00;;;11.90;;
2119;SDS011;1066;52.540;13.420;2023-05-21T09:35:10;15.37;;;13.90;;
2119;SDS011;1066;52.540;13.420;2023-05-21T09:38:32;21.33;;;19.33;;
2119;SDS011;1066;52.540;13.420;2023-05-21T09:41:57;14.10;;;12.90;;
2119;SDS011;1066;52.540;13.420;2023-05-21T09:45:23;16.47;;;15.00;;
2119;SDS011;1066;52.540;13.420;2023-05-21T09:48:44;23.40;;;21.30;;
2119;SDS011;1066;52.540;13.420;2023-05-21T09:52:02;15.37;;;13.97;;
2119;SDS011;1066;52.540;13.420;2023-05-21T09:55:23;14.87;;;13.47;;
2119;SDS011;1066;52.540;13.420;2023-05-21T09:58:55;14.83;;;13.33;;
2119;SDS011;1066;52.540;13.420;2023-05-21T10:02:14;11.20;;;10.37;;
2119;SDS011;1066;52.540;13.420;2023-05-21T10:05:33;14.83;;;13.43;;
2119;SDS011;1066;52.540;13.420;2023-05-21T10:08:53;14.13;;;12.93;;
2119;SDS011;1066;52.540;13.420;2023-05-21T10:12:12;16.07;;;14.60;;
2119;SDS011;1066;52.540;13.420;2023-05-21T10:15:41;14.90;;;13.70;;
2119;SDS011;1066;52.540;13.420;2023-05-21T10:19:01;12.73;;;11.73;;
2119;SDS011;1066;52.540;13.420;2023-05-21T10:22:19;12.17;;;11.17;;
2119;SDS011;1066;52.540;13.420;2023-05-21T10:25:38;14.23;;;12.87;;
2119;SDS011;1066;52.540;13.420;2023-05-21T10:28:57;15.43;;;13.90;;
2119;SDS011;1066;52.540;13.420;2023-05-21T10:32:15;13.50;;;12.33;;
2119;SDS011;1066;52.540;13.420;2023-05-21T10:35:33;16.47;;;15.03;;
2119;SDS011;1066;52.540;13.420;2023-05-21T10:38:53;15.97;;;14.57;;
2119;SDS011;1066;52.540;13.420;2023-05-21T10:59:42;17.70;;;16.13;;
2119;SDS011;1066;52.540;13.420;2023-05-21T11:03:02;16.27;;;14.53;;
2119;SDS011;1066;52.540;13.420;2023-05-21T11:06:23;17.47;;;15.90;;
2119;SDS011;1066;52.540;13.420;2023-05-21T11:09:48;17.10;;;15.30;;
2119;SDS011;1066;52.540;13.420;2023-05-21T11:13:12;17.10;;;15.50;;
2119;SDS011;1066;52.540;13.420;2023-05-21T11:16:49;15.50;;;14.10;;
2119;SDS011;1066;52.540;13.420;2023-05-21T11:20:11;18.27;;;16.47;;
2119;SDS011;1066;52.540;13.420;2023-05-21T11:23:51;17.63;;;15.83;;
2119;SDS011;1066;52.540;13.420;2023-05-21T11:27:09;13.53;;;12.23;;
2119;SDS011;1066;52.540;13.420;2023-05-21T11:30:33;11.60;;;10.60;;
2119;SDS011;1066;52.540;13.420;2023-05-21T11:37:28;11.13;;;10.13;;
2119;SDS011;1066;52.540;13.420;2023-05-21T11:40:52;15.27;;;14.07;;
2119;SDS011;1066;52.540;13.420;2023-05-21T11:44:15;16.27;;;14.80;;
2119;SDS011;1066;52.540;13.420;2023-05-21T11:47:34;15.00;;;13.70;;
2119;SDS011;1066;52.540;13.420;2023-05-21T11:50:54;16.57;;;15.23;;
2119;SDS011;1066;52.540;13.420;2023-05-21T11:54:12;9.60;;;8.70;;
2119;SDS011;1066;52.540;13.420;2023-05-21T11:57:31;9.80;;;7.97;;
2119;SDS011;1066;52.540;13.420;2023-05-21T12:00:49;9.60;;;8.90;;
2119;SDS011;1066;52.540;13.420;2023-05-21T12:04:08;8.30;;;7.63;;
2119;SDS011;1066;52.540;13.420;2023-05-21T12:07:28;11.33;;;10.53;;
2119;SDS011;1066;52.540;13.420;2023-05-21T12:10:53;9.83;;;9.10;;
2119;SDS011;1066;52.540;13.420;2023-05-21T12:14:11;14.67;;;13.47;;
2119;SDS011;1066;52.540;13.420;2023-05-21T12:17:30;7.80;;;7.20;;
2119;SDS011;1066;52.540;13.420;2023-05-21T12:20:50;8.30;;;7.60;;
2119;SDS011;1066;52.540;13.420;2023-05-21T12:24:08;7.57;;;7.07;;
2119;SDS011;1066;52.540;13.420;2023-05-21T12:27:26;8.40;;;7.70;;
2119;SDS011;1066;52.540;13.420;2023-05-21T12:30:46;8.00;;;7.23;;
2119;SDS011;1066;52.540;13.420;2023-05-21T12:34:12;8.73;;;8.03;;
2119;SDS011;1066;52.540;13.420;2023-05-21T12:37:30;7.50;;;7.00;;
2119;SDS011;1066;52.540;13.420;2023-05-21T12:40:47;9.17;;;8.53;;
2119;SDS011;1066;52.540;13.420;2023-05-21T12:44:05;8.00;;;7.30;;
2119;SDS011;1066;52.540;13.420;2023-05-21T12:47:24;9.20;;;8.50;;
2119;SDS011;1066;52.540;13.420;2023-05-21T12:50:47;10.90;;;10.00;;
2119;SDS011;1066;52.540;13.420;2023-05-21T12:54:12;8.57;;;7.97;;
2119;SDS011;1066;52.540;13.420;2023-05-21T12:57:35;7.90;;;7.20;;
2119;SDS011;1066;52.540;13.420;2023-05-21T13:00:53;10.57;;;9.57;;
2119;SDS011;1066;52.540;13.420;2023-05-21T13:04:12;7.90;;;7.30;;
2119;SDS011;1066;52.540;13.420;2023-05-21T13:07:33;8.30;;;7.70;;
2119;SDS011;1066;52.540;13.420;2023-05-21T13:10:51;8.30;;;7.27;;
2119;SDS011;1066;52.540;13.420;2023-05-21T13:14:09;13.40;;;11.97;;
2119;SDS011;1066;52.540;13.420;2023-05-21T13:17:28;8.63;;;8.00;;
2119;SDS011;1066;52.540;13.420;2023-05-21T13:20:46;8.43;;;7.80;;
2119;SDS011;1066;52.540;13.420;2023-05-21T13:24:07;11.67;;;9.10;;
2119;SDS011;1066;52.540;13.420;2023-05-21T13:27:25;8.30;;;7.67;;
2119;SDS011;1066;52.540;13.420;2023-05-21T13:30:43;8.47;;;7.83;;
2119;SDS011;1066;52.540;13.420;2023-05-21T13:34:02;7.50;;;6.90;;
2119;SDS011;1066;52.540;13.420;2023-05-21T13:37:19;7.30;;;6.80;;
2119;SDS011;1066;52.540;13.420;2023-05-21T13:40:37;8.70;;;7.90;;
2119;SDS011;1066;52.540;13.420;2023-05-21T13:43:55;8.20;;;7.47;;
2119;SDS011;1066;52.540;13.420;2023-05-21T13:47:14;8.43;;;6.93;;
2119;SDS011;1066;52.540;13.420;2023-05-21T13:50:32;8.20;;;7.40;;
2119;SDS011;1066;52.540;13.420;2023-05-21T13:53:50;9.70;;;8.70;;
2119;SDS011;1066;52.540;13.420;2023-05-21T13:57:08;7.40;;;6.87;;
2119;SDS011;1066;52.540;13.420;2023-05-21T14:00:27;8.37;;;7.67;;
2119;SDS011;1066;52.540;13.420;2023-05-21T14:03:45;9.30;;;8.57;;
2119;SDS011;1066;52.540;13.420;2023-05-21T14:07:02;9.50;;;8.60;;
2119;SDS011;1066;52.540;13.420;2023-05-21T14:10:20;10.87;;;9.30;;
2119;SDS011;1066;52.540;13.420;2023-05-21T14:13:39;7.73;;;7.03;;
2119;SDS011;1066;52.540;13.420;2023-05-21T14:16:57;9.30;;;8.40;;
2119;SDS011;1066;52.540;13.420;2023-05-21T14:20:16;7.67;;;6.87;;
2119;SDS011;1066;52.540;13.420;2023-05-21T14:23:34;7.73;;;7.03;;
2119;SDS011;1066;52.540;13.420;2023-05-21T14:26:52;7.10;;;6.60;;
2119;SDS011;1066;52.540;13.420;2023-05-21T14:30:10;8.50;;;7.90;;
2119;SDS011;1066;52.540;13.420;2023-05-21T14:33:29;7.90;;;7.20;;
2119;SDS011;1066;52.540;13.420;2023-05-21T14:36:47;7.53;;;6.83;;
2119;SDS011;1066;52.540;13.420;2023-05-21T14:40:05;9.37;;;7.87;;
2119;SDS011;1066;52.540;13.420;2023-05-21T14:43:23;7.70;;;7.10;;
2119;SDS011;1066;52.540;13.420;2023-05-21T14:46:41;8.37;;;7.57;;
2119;SDS011;1066;52.540;13.420;2023-05-21T14:49:59;6.60;;;6.10;;
2119;SDS011;1066;52.540;13.420;2023-05-21T14:53:17;8.60;;;7.07;;
2119;SDS011;1066;52.540;13.420;2023-05-21T14:56:35;8.90;;;8.00;;
2119;SDS011;1066;52.540;13.420;2023-05-21T14:59:53;13.30;;;7.93;;
2119;SDS011;1066;52.540;13.420;2023-05-21T15:03:11;11.80;;;7.70;;
2119;SDS011;1066;52.540;13.420;2023-05-21T15:06:31;12.03;;;7.43;;
2119;SDS011;1066;52.540;13.420;2023-05-21T15:09:49;7.50;;;6.80;;
2119;SDS011;1066;52.540;13.420;2023-05-21T15:13:06;7.27;;;6.57;;
2119;SDS011;1066;52.540;13.420;2023-05-21T15:16:24;7.90;;;7.13;;
2119;SDS011;1066;52.540;13.420;2023-05-21T15:19:42;8.83;;;7.40;;
2119;SDS011;1066;52.540;13.420;2023-05-21T15:23:00;6.93;;;6.23;;
2119;SDS011;1066;52.540;13.420;2023-05-21T15:26:18;7.43;;;6.00;;
2119;SDS011;1066;52.540;13.420;2023-05-21T15:32:54;8.33;;;7.30;;
2119;SDS011;1066;52.540;13.420;2023-05-21T15:36:12;6.50;;;6.00;;
2119;SDS011;1066;52.540;13.420;2023-05-21T15:39:30;7.47;;;6.80;;
2119;SDS011;1066;52.540;13.420;2023-05-21T15:42:48;10.20;;;7.20;;
2119;SDS011;1066;52.540;13.420;2023-05-21T15:46:06;6.80;;;6.10;;
2119;SDS011;1066;52.540;13.420;2023-05-21T15:49:24;7.13;;;6.53;;
2119;SDS011;1066;52.540;13.420;2023-05-21T15:52:42;7.40;;;6.63;;
2119;SDS011;1066;52.540;13.420;2023-05-21T15:56:00;6.97;;;6.40;;
2119;SDS011;1066;52.540;13.420;2023-05-21T15:59:18;7.47;;;6.60;;
2119;SDS011;1066;52.540;13.420;2023-05-21T16:02:36;7.73;;;7.07;;
2119;SDS011;1066;52.540;13.420;2023-05-21T16:05:54;6.53;;;6.00;;
2119;SDS011;1066;52.540;13.420;2023-05-21T16:09:12;6.33;;;5.77;;
2119;SDS011;1066;52.540;13.420;2023-05-21T16:12:31;7.33;;;5.60;;
2119;SDS011;1066;52.540;13.420;2023-05-21T16:15:50;7.47;;;6.77;;
2119;SDS011;1066;52.540;13.420;2023-05-21T16:19:08;7.40;;;6.10;;
2119;SDS011;1066;52.540;13.420;2023-05-21T16:22:27;8.10;;;6.10;;
2119;SDS011;1066;52.540;13.420;2023-05-21T16:25:44;6.90;;;6.37;;
2119;SDS011;1066;52.540;13.420;2023-05-21T16:29:02;6.43;;;5.93;;
2119;SDS011;1066;52.540;13.420;2023-05-21T16:32:20;6.83;;;6.27;;
2119;SDS011;1066;52.540;13.420;2023-05-21T16:35:38;6.47;;;5.90;;
2119;SDS011;1066;52.540;13.420;2023-05-21T16:38:56;6.97;;;6.27;;
2119;SDS011;1066;52.540;13.420;2023-05-21T16:42:14;6.83;;;6.13;;
2119;SDS011;1066;52.540;13.420;2023-05-21T16:45:39;6.97;;;6.30;;
2119;SDS011;1066;52.540;13.420;2023-05-21T16:48:57;7.67;;;6.97;;
2119;SDS011;1066;52.540;13.420;2023-05-21T16:52:15;6.93;;;6.20;;
2119;SDS011;1066;52.540;13.420;2023-05-21T16:55:34;6.53;;;6.03;;
2119;SDS011;1066;52.540;13.420;2023-05-21T16:58:52;9.73;;;6.50;;
2119;SDS011;1066;52.540;13.420;2023-05-21T17:02:10;6.57;;;5.80;;
2119;SDS011;1066;52.540;13.420;2023-05-21T17:05:28;6.70;;;6.10;;
2119;SDS011;1066;52.540;13.420;2023-05-21T17:08:47;7.77;;;6.00;;
2119;SDS011;1066;52.540;13.420;2023-05-21T17:12:05;6.40;;;5.80;;
2119;SDS011;1066;52.540;13.420;2023-05-21T17:15:23;5.97;;;5.47;;
2119;SDS011;1066;52.540;13.420;2023-05-21T17:18:40;5.80;;;5.27;;
2119;SDS011;1066;52.540;13.420;2023-05-21T17:21:58;6.77;;;5.93;;
2119;SDS011;1066;52.540;13.420;2023-05-21T17:25:16;6.43;;;5.77;;
2119;SDS011;1066;52.540;13.420;2023-05-21T17:28:35;8.13;;;6.10;;
2119;SDS011;1066;52.540;13.420;2023-05-21T17:31:52;6.37;;;5.87;;
2119;SDS011;1066;52.540;13.420;2023-05-21T17:35:11;5.70;;;5.20;;
2119;SDS011;1066;52.540;13.420;2023-05-21T17:38:29;6.83;;;6.10;;
2119;SDS011;1066;52.540;13.420;2023-05-21T17:41:47;6.70;;;6.10;;
2119;SDS011;1066;52.540;13.420;2023-05-21T17:45:04;6.43;;;5.93;;
2119;SDS011;1066;52.540;13.420;2023-05-21T17:48:22;6.00;;;5.40;;
2119;SDS011;1066;52.540;13.420;2023-05-21T17:51:40;6.27;;;5.67;;
2119;SDS011;1066;52.540;13.420;2023-05-21T17:54:59;5.93;;;5.53;;
2119;SDS011;1066;52.540;13.420;2023-05-21T17:58:17;5.90;;;5.50;;
2119;SDS011;1066;52.540;13.420;2023-05-21T18:01:36;5.40;;;5.00;;
2119;SDS011;1066;52.540;13.420;2023-05-21T18:04:54;5.70;;;5.20;;
2119;SDS011;1066;52.540;13.420;2023-05-21T18:08:13;6.17;;;5.67;;
2119;SDS011;1066;52.540;13.420;2023-05-21T18:11:40;6.67;;;6.07;;
2119;SDS011;1066;52.540;13.420;2023-05-21T18:14:58;5.20;;;4.80;;
2119;SDS011;1066;52.540;13.420;2023-05-21T18:18:16;6.47;;;5.87;;
2119;SDS011;1066;52.540;13.420;2023-05-21T18:21:34;5.67;;;5.27;;
2119;SDS011;1066;52.540;13.420;2023-05-21T18:24:52;5.80;;;5.27;;
2119;SDS011;1066;52.540;13.420;2023-05-21T18:28:10;5.50;;;5.00;;
2119;SDS011;1066;52.540;13.420;2023-05-21T18:31:28;5.53;;;5.00;;
2119;SDS011;1066;52.540;13.420;2023-05-21T18:34:46;5.90;;;5.50;;
2119;SDS011;1066;52.540;13.420;2023-05-21T18:38:04;6.10;;;5.53;;
2119;SDS011;1066;52.540;13.420;2023-05-21T18:41:22;7.37;;;5.50;;
2119;SDS011;1066;52.540;13.420;2023-05-21T18:44:40;5.20;;;4.80;;
2119;SDS011;1066;52.540;13.420;2023-05-21T18:47:58;5.63;;;5.13;;
2119;SDS011;1066;52.540;13.420;2023-05-21T18:51:16;9.60;;;5.53;;
2119;SDS011;1066;52.540;13.420;2023-05-21T18:54:34;5.93;;;5.40;;
2119;SDS011;1066;52.540;13.420;2023-05-21T18:57:52;6.93;;;5.67;;
2119;SDS011;1066;52.540;13.420;2023-05-21T19:01:11;5.23;;;4.83;;
2119;SDS011;1066;52.540;13.420;2023-05-21T19:04:29;6.27;;;5.67;;
2119;SDS011;1066;52.540;13.420;2023-05-21T19:07:47;5.80;;;5.27;;
2119;SDS011;1066;52.540;13.420;2023-05-21T19:11:05;6.27;;;5.67;;
2119;SDS011;1066;52.540;13.420;2023-05-21T19:14:25;5.50;;;4.93;;
2119;SDS011;1066;52.540;13.420;2023-05-21T19:17:42;6.60;;;6.00;;
2119;SDS011;1066;52.540;13.420;2023-05-21T19:21:01;6.67;;;5.00;;
2119;SDS011;1066;52.540;13.420;2023-05-21T19:24:18;5.50;;;5.03;;
2119;SDS011;1066;52.540;13.420;2023-05-21T19:27:36;7.23;;;5.10;;
2119;SDS011;1066;52.540;13.420;2023-05-21T19:30:54;5.53;;;5.13;;
2119;SDS011;1066;52.540;13.420;2023-05-21T19:34:12;5.70;;;5.30;;
2119;SDS011;1066;52.540;13.420;2023-05-21T19:37:30;5.97;;;5.07;;
2119;SDS011;1066;52.540;13.420;2023-05-21T19:40:48;5.83;;;4.87;;
2119;SDS011;1066;52.540;13.420;2023-05-21T19:44:06;6.57;;;5.97;;
2119;SDS011;1066;52.540;13.420;2023-05-21T19:47:24;6.30;;;5.80;;
2119;SDS011;1066;52.540;13.420;2023-05-21T19:50:42;6.50;;;5.43;;
2119;SDS011;1066;52.540;13.420;2023-05-21T19:54:00;6.00;;;5.40;;
2119;SDS011;1066;52.540;13.420;2023-05-21T19:57:18;5.10;;;4.70;;
2119;SDS011;1066;52.540;13.420;2023-05-21T20:00:40;5.77;;;5.07;;
2119;SDS011;1066;52.540;13.420;2023-05-21T20:04:03;5.77;;;5.27;;
2119;SDS011;1066;52.540;13.420;2023-05-21T20:07:22;6.83;;;5.70;;
2119;SDS011;1066;52.540;13.420;2023-05-21T20:10:41;5.67;;;5.27;;
2119;SDS011;1066;52.540;13.420;2023-05-21T20:14:00;5.37;;;4.87;;
2119;SDS011;1066;52.540;13.420;2023-05-21T20:17:18;6.13;;;5.60;;
2119;SDS011;1066;52.540;13.420;2023-05-21T20:20:36;6.93;;;6.40;;
2119;SDS011;1066;52.540;13.420;2023-05-21T20:23:55;6.20;;;5.47;;
2119;SDS011;1066;52.540;13.420;2023-05-21T20:27:13;6.30;;;5.80;;
2119;SDS011;1066;52.540;13.420;2023-05-21T20:30:32;6.17;;;5.57;;